Time;durP1;ratioP1;P1;durP2;ratioP2;P2;SDS_P1;SDS_P2;PMS_P1;PMS_P2;Temp;Humidity;BMP_temperature;BMP_pressure;BME280_temperature;BME280_humidity;BME280_pressure;Samples;Min_cycle;Max_cycle;Signal;HPM_P1;HPM_P2
2023/11/15 00:00:11;;;;;;;20.70;4.38;;;8.50;99.90;;;;;;4988669;28;20052;-74
2023/11/15 00:02:37;;;;;;;13.25;3.60;;;8.50;99.90;;;;;;5003539;28;20274;-73
2023/11/15 00:05:04;;;;;;;14.77;3.72;;;8.40;99.90;;;;;;5007580;28;20405;-73
2023/11/15 00:07:30;;;;;;;16.63;4.25;;;8.40;99.90;;;;;;4989723;28;20053;-73
2023/11/15 00:09:56;;;;;;;17.13;3.72;;;8.40;99.90;;;;;;5006100;28;20041;-73
2023/11/15 00:12:22;;;;;;;13.65;3.88;;;8.40;99.90;;;;;;4988586;28;20148;-73
2023/11/15 00:14:48;;;;;;;17.27;4.28;;;8.40;99.90;;;;;;5003040;28;20039;-73
2023/11/15 00:17:14;;;;;;;13.90;3.95;;;8.40;99.90;;;;;;5003452;28;20596;-73
2023/11/15 00:19:45;;;;;;;13.30;2.97;;;8.40;99.90;;;;;;5009919;28;20529;-73
2023/11/15 00:22:14;;;;;;;16.05;3.50;;;8.50;99.90;;;;;;4994223;28;20055;-73
2023/11/15 00:24:41;;;;;;;14.63;3.20;;;8.50;99.90;;;;;;5008489;28;20049;-72
2023/11/15 00:27:08;;;;;;;7.55;2.78;;;8.40;99.90;;;;;;4990576;28;20056;-72
2023/11/15 00:29:34;;;;;;;9.98;3.17;;;8.50;99.90;;;;;;4988829;28;20045;-73
2023/11/15 00:32:00;;;;;;;15.85;3.15;;;8.50;99.90;;;;;;4988377;28;20042;-73
2023/11/15 00:34:26;;;;;;;12.95;3.10;;;8.60;99.90;;;;;;5010796;28;20049;-73
2023/11/15 00:36:53;;;;;;;11.10;3.38;;;8.60;99.90;;;;;;5000271;28;20496;-73
2023/11/15 00:39:19;;;;;;;16.42;3.25;;;8.60;99.90;;;;;;5006772;28;20042;-73
2023/11/15 00:41:45;;;;;;;16.63;3.08;;;8.60;99.90;;;;;;5006764;28;20054;-73
2023/11/15 00:44:11;;;;;;;14.20;2.97;;;8.60;99.90;;;;;;5003161;28;20107;-73
2023/11/15 00:46:37;;;;;;;10.68;3.05;;;8.70;99.90;;;;;;5011982;28;20103;-73
2023/11/15 00:49:03;;;;;;;16.13;2.95;;;8.70;99.90;;;;;;5010119;28;20101;-74
2023/11/15 00:51:29;;;;;;;10.85;3.05;;;8.70;99.90;;;;;;5007000;28;20579;-73
2023/11/15 00:53:55;;;;;;;18.50;3.15;;;8.70;99.90;;;;;;4989652;28;20041;-73
2023/11/15 00:56:21;;;;;;;11.02;3.10;;;8.70;99.90;;;;;;5013277;28;20045;-81
2023/11/15 00:58:47;;;;;;;10.35;2.60;;;8.70;99.90;;;;;;5005473;28;20041;-81
2023/11/15 01:01:13;;;;;;;11.20;2.65;;;8.70;99.90;;;;;;4986565;28;20508;-81
2023/11/15 01:03:55;;;;;;;9.90;2.65;;;8.80;99.90;;;;;;4983626;28;20048;-81
2023/11/15 01:06:25;;;;;;;9.93;3.13;;;8.80;99.90;;;;;;4984904;28;20084;-81
2023/11/15 01:08:57;;;;;;;12.15;2.90;;;8.80;99.90;;;;;;5011896;28;20123;-81
2023/11/15 01:11:26;;;;;;;6.32;2.47;;;8.80;99.90;;;;;;5010606;28;20230;-81
2023/11/15 01:13:55;;;;;;;20.83;3.17;;;8.80;99.90;;;;;;4983171;28;20090;-81
2023/11/15 01:16:23;;;;;;;9.95;2.95;;;8.80;99.90;;;;;;5003043;28;20080;-81
2023/11/15 01:18:50;;;;;;;16.00;3.33;;;8.80;99.90;;;;;;4991109;28;20137;-81
2023/11/15 01:21:18;;;;;;;8.73;2.67;;;8.80;99.90;;;;;;4990009;28;20710;-81
2023/11/15 01:23:44;;;;;;;11.75;3.15;;;8.80;99.90;;;;;;5003888;28;20050;-80
2023/11/15 01:26:10;;;;;;;13.50;3.70;;;8.80;99.90;;;;;;5013159;28;20081;-80
2023/11/15 01:28:36;;;;;;;13.55;3.88;;;8.90;99.90;;;;;;5000484;28;20120;-81
2023/11/15 01:31:02;;;;;;;15.77;4.95;;;8.80;99.90;;;;;;4991495;28;20551;-80
2023/11/15 01:33:28;;;;;;;14.80;4.82;;;8.90;99.90;;;;;;5008952;28;20252;-81
2023/11/15 01:35:54;;;;;;;15.80;4.78;;;8.90;99.90;;;;;;5007263;28;20072;-80
2023/11/15 01:38:20;;;;;;;14.35;5.18;;;8.90;99.90;;;;;;5006981;28;20080;-80
2023/11/15 01:40:48;;;;;;;13.23;4.53;;;8.90;99.90;;;;;;4999367;28;20033;-80
2023/11/15 01:43:16;;;;;;;14.98;5.35;;;8.90;99.90;;;;;;5008132;28;20352;-80
2023/11/15 01:45:43;;;;;;;15.48;5.25;;;8.90;99.90;;;;;;4993544;28;20224;-80
2023/11/15 01:48:09;;;;;;;13.82;4.50;;;8.90;99.90;;;;;;4990480;28;20120;-80
2023/11/15 01:50:35;;;;;;;13.80;4.72;;;8.90;99.90;;;;;;5007666;28;20136;-81
2023/11/15 01:53:02;;;;;;;16.02;5.32;;;8.90;99.90;;;;;;5010795;28;20033;-80
2023/11/15 01:55:28;;;;;;;18.48;5.18;;;9.00;99.90;;;;;;5017659;28;20351;-81
2023/11/15 01:57:54;;;;;;;10.95;4.05;;;9.00;99.90;;;;;;4993934;28;20535;-80
2023/11/15 02:00:20;;;;;;;12.23;4.47;;;8.90;99.90;;;;;;5009119;28;20037;-81
2023/11/15 02:02:46;;;;;;;12.15;3.88;;;9.00;99.90;;;;;;4990157;28;20056;-80
2023/11/15 02:05:13;;;;;;;6.75;3.20;;;8.90;99.90;;;;;;5010355;28;20116;-80
2023/11/15 02:07:39;;;;;;;7.70;3.17;;;9.00;99.90;;;;;;4996137;28;20045;-81
2023/11/15 02:10:07;;;;;;;7.00;3.65;;;9.00;99.90;;;;;;4995511;28;20045;-81
2023/11/15 02:12:33;;;;;;;9.45;2.90;;;9.00;99.90;;;;;;5029979;28;20041;-80
2023/11/15 02:14:59;;;;;;;7.03;3.33;;;9.00;99.90;;;;;;4995323;28;20049;-80
2023/11/15 02:17:26;;;;;;;7.68;3.20;;;9.00;99.90;;;;;;5006323;28;20447;-80
2023/11/15 02:19:52;;;;;;;11.68;3.38;;;8.90;99.90;;;;;;5013909;28;20037;-80
2023/11/15 02:22:18;;;;;;;8.35;2.90;;;8.90;99.90;;;;;;4995449;28;20038;-81
2023/11/15 02:24:45;;;;;;;9.50;2.38;;;8.90;99.90;;;;;;5000654;28;20065;-81
2023/11/15 02:27:11;;;;;;;5.28;2.20;;;8.90;99.90;;;;;;5010383;28;20045;-81
2023/11/15 02:29:37;;;;;;;6.90;2.33;;;8.90;99.90;;;;;;4993146;28;20049;-83
2023/11/15 02:32:03;;;;;;;5.13;2.33;;;8.90;99.90;;;;;;5011498;28;20040;-81
2023/11/15 02:34:28;;;;;;;12.00;3.33;;;9.00;99.90;;;;;;5007652;28;20443;-81
2023/11/15 02:36:55;;;;;;;13.32;3.30;;;9.00;99.90;;;;;;5010474;28;20042;-80
2023/11/15 02:39:22;;;;;;;8.07;3.20;;;9.00;99.90;;;;;;5009973;28;20508;-81
2023/11/15 02:41:48;;;;;;;8.45;2.95;;;9.00;99.90;;;;;;4992034;28;20083;-80
2023/11/15 02:44:17;;;;;;;14.82;4.20;;;8.90;99.90;;;;;;4991186;28;20067;-80
2023/11/15 02:46:43;;;;;;;13.10;4.30;;;9.00;99.90;;;;;;4987883;28;20129;-80
2023/11/15 02:49:08;;;;;;;12.45;3.63;;;8.90;99.90;;;;;;4993825;28;20110;-81
2023/11/15 02:51:34;;;;;;;9.57;3.50;;;8.90;99.90;;;;;;4980059;28;20576;-81
2023/11/15 02:54:03;;;;;;;13.57;3.95;;;9.00;99.90;;;;;;4972594;28;20050;-80
2023/11/15 02:56:30;;;;;;;13.70;4.05;;;8.90;99.90;;;;;;4973852;28;20053;-80
2023/11/15 02:58:56;;;;;;;10.05;4.28;;;9.00;99.90;;;;;;4984962;28;20116;-81
2023/11/15 03:01:22;;;;;;;10.98;4.63;;;9.00;99.90;;;;;;4988506;28;20049;-81
2023/11/15 03:03:48;;;;;;;15.63;4.30;;;9.00;99.90;;;;;;4987003;28;20129;-80
2023/11/15 03:06:14;;;;;;;16.40;5.00;;;9.00;99.90;;;;;;4973122;28;20164;-80
2023/11/15 03:08:39;;;;;;;15.85;5.13;;;9.00;99.90;;;;;;4994190;28;20045;-80
2023/11/15 03:11:06;;;;;;;14.63;4.97;;;9.00;99.90;;;;;;4987330;28;20119;-80
2023/11/15 03:13:33;;;;;;;9.23;4.57;;;8.90;99.90;;;;;;4985999;28;20058;-81
2023/11/15 03:15:58;;;;;;;13.13;4.63;;;8.90;99.90;;;;;;5012018;28;20045;-80
2023/11/15 03:18:25;;;;;;;8.75;3.88;;;9.00;99.90;;;;;;5004760;28;20408;-80
2023/11/15 03:20:51;;;;;;;14.63;5.30;;;8.90;99.90;;;;;;5010383;28;20044;-80
2023/11/15 03:23:16;;;;;;;11.82;4.35;;;8.90;99.90;;;;;;4991365;28;20515;-81
2023/11/15 03:25:43;;;;;;;11.45;4.50;;;8.90;99.90;;;;;;5009484;28;20107;-81
2023/11/15 03:28:09;;;;;;;9.07;4.03;;;8.90;99.90;;;;;;5010876;28;20042;-80
2023/11/15 03:30:35;;;;;;;12.50;4.10;;;8.90;99.90;;;;;;4988665;28;20124;-73
2023/11/15 03:33:02;;;;;;;11.95;4.70;;;8.90;99.90;;;;;;4987452;28;20116;-73
2023/11/15 03:35:27;;;;;;;8.73;3.97;;;8.90;99.90;;;;;;5006581;28;20104;-73
2023/11/15 03:37:53;;;;;;;15.90;5.00;;;8.90;99.90;;;;;;4990241;28;20045;-73
2023/11/15 03:40:19;;;;;;;15.75;5.60;;;8.90;99.90;;;;;;5005303;28;20502;-73
2023/11/15 03:42:48;;;;;;;21.05;6.10;;;8.90;99.90;;;;;;4986883;28;20507;-73
2023/11/15 03:45:14;;;;;;;9.10;4.22;;;8.90;99.90;;;;;;5005561;28;20049;-72
2023/11/15 03:47:40;;;;;;;11.73;5.00;;;8.90;99.90;;;;;;5008771;28;20059;-73
2023/11/15 03:50:07;;;;;;;11.30;4.80;;;8.90;99.90;;;;;;5005634;28;20045;-75
2023/11/15 03:52:32;;;;;;;10.70;4.78;;;8.90;99.90;;;;;;5006568;28;20045;-73
2023/11/15 03:54:59;;;;;;;17.55;5.43;;;8.90;99.90;;;;;;5001932;28;20041;-73
2023/11/15 03:57:26;;;;;;;6.72;3.80;;;8.90;99.90;;;;;;4991803;28;20484;-73
2023/11/15 03:59:53;;;;;;;17.38;5.88;;;8.90;99.90;;;;;;5006230;28;20091;-73
2023/11/15 04:02:20;;;;;;;14.68;5.88;;;8.80;99.90;;;;;;5020639;28;20041;-72
2023/11/15 04:04:46;;;;;;;13.60;5.15;;;8.90;99.90;;;;;;5003270;28;20052;-73
2023/11/15 04:07:12;;;;;;;13.18;5.03;;;8.90;99.90;;;;;;5005528;28;20044;-72
2023/11/15 04:09:38;;;;;;;15.40;6.43;;;8.90;99.90;;;;;;4986700;28;20125;-72
2023/11/15 04:12:04;;;;;;;9.85;4.72;;;8.90;99.90;;;;;;5003459;28;20049;-73
2023/11/15 04:14:31;;;;;;;16.48;5.70;;;8.90;99.90;;;;;;5011610;28;20044;-73
2023/11/15 04:16:57;;;;;;;9.80;4.97;;;8.80;99.90;;;;;;5007000;28;20042;-73
2023/11/15 04:19:22;;;;;;;10.43;5.60;;;8.80;99.90;;;;;;4996670;28;20041;-73
2023/11/15 04:21:49;;;;;;;10.75;5.22;;;8.80;99.90;;;;;;4998777;28;20052;-73
2023/11/15 04:24:17;;;;;;;7.55;4.20;;;8.80;99.90;;;;;;4987264;28;20103;-73
2023/11/15 04:26:46;;;;;;;13.82;5.72;;;8.80;99.90;;;;;;4990664;28;20042;-73
2023/11/15 04:29:12;;;;;;;11.63;4.90;;;8.80;99.90;;;;;;5003893;28;20373;-73
2023/11/15 04:31:38;;;;;;;6.35;4.43;;;8.80;99.90;;;;;;4988744;28;20045;-73
2023/11/15 04:34:05;;;;;;;11.10;4.97;;;8.80;99.90;;;;;;4994364;28;20033;-72
2023/11/15 04:36:37;;;;;;;9.00;4.95;;;8.80;99.90;;;;;;5009557;28;20059;-73
2023/11/15 04:39:07;;;;;;;9.43;4.22;;;8.80;99.90;;;;;;4988093;28;20140;-73
2023/11/15 04:41:34;;;;;;;7.75;4.35;;;8.80;99.90;;;;;;5005932;28;20048;-73
2023/11/15 04:44:00;;;;;;;9.13;4.75;;;8.70;99.90;;;;;;4994067;28;20172;-73
2023/11/15 04:46:26;;;;;;;8.32;4.80;;;8.70;99.90;;;;;;4997276;28;20056;-72
2023/11/15 04:48:52;;;;;;;10.80;4.65;;;8.80;99.90;;;;;;4989561;28;20042;-73
2023/11/15 04:51:18;;;;;;;7.95;4.95;;;8.70;99.90;;;;;;5014609;28;20044;-72
2023/11/15 04:53:43;;;;;;;11.43;4.72;;;8.70;99.90;;;;;;5015845;28;20044;-75
2023/11/15 04:56:09;;;;;;;7.70;3.83;;;8.70;99.90;;;;;;5014936;28;20044;-72
2023/11/15 04:58:35;;;;;;;6.70;3.80;;;8.70;99.90;;;;;;4987181;28;20043;-73
2023/11/15 05:01:01;;;;;;;9.27;4.88;;;8.70;99.90;;;;;;4988837;28;20034;-73
2023/11/15 05:03:26;;;;;;;10.20;4.15;;;8.70;99.90;;;;;;5007200;28;20045;-72
2023/11/15 05:05:55;;;;;;;11.25;4.25;;;8.60;99.90;;;;;;4991953;28;20045;-73
2023/11/15 05:08:24;;;;;;;14.93;4.50;;;8.60;99.90;;;;;;4995198;28;20443;-73
2023/11/15 05:10:50;;;;;;;13.98;5.00;;;8.60;99.90;;;;;;5006229;28;20052;-73
2023/11/15 05:13:17;;;;;;;17.50;4.85;;;8.60;99.90;;;;;;4995663;28;20041;-72
2023/11/15 05:15:43;;;;;;;12.15;4.20;;;8.50;99.90;;;;;;5003680;28;20123;-72
2023/11/15 05:18:08;;;;;;;8.65;3.83;;;8.50;99.90;;;;;;4993604;28;20037;-72
2023/11/15 05:20:34;;;;;;;15.75;4.60;;;8.40;99.90;;;;;;5026080;28;20120;-73
2023/11/15 05:23:00;;;;;;;9.73;3.88;;;8.50;99.90;;;;;;5003814;28;20045;-73
2023/11/15 05:25:28;;;;;;;9.27;3.53;;;8.40;99.90;;;;;;5011329;28;20081;-73
2023/11/15 05:27:54;;;;;;;7.63;3.60;;;8.40;99.90;;;;;;5001237;28;20450;-73
2023/11/15 05:30:20;;;;;;;10.85;4.30;;;8.30;99.90;;;;;;4993323;28;20048;-73
2023/11/15 05:32:46;;;;;;;6.78;3.47;;;8.30;99.90;;;;;;5002932;28;20511;-72
2023/11/15 05:35:12;;;;;;;15.32;4.57;;;8.30;99.90;;;;;;5004011;28;20073;-73
2023/11/15 05:37:39;;;;;;;10.80;3.88;;;8.30;99.90;;;;;;4991949;28;20045;-73
2023/11/15 05:40:07;;;;;;;9.05;3.40;;;8.30;99.90;;;;;;5009577;28;20128;-73
2023/11/15 05:42:33;;;;;;;23.77;3.88;;;8.30;99.90;;;;;;5010897;28;20503;-73
2023/11/15 05:44:59;;;;;;;11.73;3.72;;;8.30;99.90;;;;;;5012344;28;20053;-72
2023/11/15 05:47:26;;;;;;;6.85;3.22;;;8.30;99.90;;;;;;4993081;28;20056;-73
2023/11/15 05:49:53;;;;;;;10.10;3.53;;;8.30;99.90;;;;;;4991734;28;20041;-73
2023/11/15 05:52:19;;;;;;;8.57;3.33;;;8.30;99.90;;;;;;5010459;28;20041;-72
2023/11/15 05:54:46;;;;;;;9.10;3.33;;;8.30;99.90;;;;;;5009776;28;20148;-73
2023/11/15 05:57:16;;;;;;;11.07;3.30;;;8.30;99.90;;;;;;5010512;28;20492;-73
2023/11/15 05:59:42;;;;;;;7.97;2.90;;;8.30;99.90;;;;;;5006049;28;20116;-73
2023/11/15 06:02:07;;;;;;;8.75;3.03;;;8.20;99.90;;;;;;5017482;28;20075;-73
2023/11/15 06:04:34;;;;;;;10.52;3.10;;;8.20;99.90;;;;;;4993800;28;20523;-73
2023/11/15 06:07:00;;;;;;;9.75;3.10;;;8.30;99.90;;;;;;5009119;28;20136;-73
2023/11/15 06:09:27;;;;;;;10.93;3.03;;;8.30;99.90;;;;;;5006058;28;20137;-73
2023/11/15 06:11:53;;;;;;;11.77;3.40;;;8.20;99.90;;;;;;5009437;28;20051;-73
2023/11/15 06:14:19;;;;;;;10.35;3.50;;;8.20;99.90;;;;;;5003631;28;20049;-73
2023/11/15 06:16:45;;;;;;;9.80;3.20;;;8.20;99.90;;;;;;4995930;28;20049;-73
2023/11/15 06:19:11;;;;;;;14.02;2.90;;;8.20;99.90;;;;;;5010019;28;20048;-73
2023/11/15 06:21:41;;;;;;;9.68;3.25;;;8.20;99.90;;;;;;4991304;28;20077;-73
2023/11/15 06:24:07;;;;;;;8.93;2.78;;;8.20;99.90;;;;;;4990968;28;20053;-73
2023/11/15 06:26:37;;;;;;;7.97;3.00;;;8.20;99.90;;;;;;4993409;28;20053;-73
2023/11/15 06:29:05;;;;;;;11.60;3.00;;;8.20;99.90;;;;;;5003411;28;20060;-73
2023/11/15 06:31:37;;;;;;;12.52;3.22;;;8.20;99.90;;;;;;4999607;28;20052;-73
2023/11/15 06:34:05;;;;;;;9.90;2.80;;;8.20;99.90;;;;;;5015615;28;20587;-73
2023/11/15 06:36:34;;;;;;;12.73;3.53;;;8.20;99.90;;;;;;5013278;28;20499;-73
2023/11/15 06:39:03;;;;;;;8.80;3.13;;;8.20;99.90;;;;;;4995973;28;20068;-73
2023/11/15 06:41:33;;;;;;;13.02;3.38;;;8.20;99.90;;;;;;4990324;28;20049;-73
2023/11/15 06:43:59;;;;;;;9.02;3.03;;;8.20;99.90;;;;;;5014246;28;20086;-73
2023/11/15 06:46:25;;;;;;;11.90;3.50;;;8.20;99.90;;;;;;5007446;28;20630;-74
2023/11/15 06:48:51;;;;;;;10.88;3.53;;;8.20;99.90;;;;;;5008694;28;20049;-73
2023/11/15 06:51:17;;;;;;;10.45;3.40;;;8.30;99.90;;;;;;4991197;28;20045;-73
2023/11/15 06:53:45;;;;;;;7.60;3.53;;;8.20;99.90;;;;;;5005773;28;20038;-73
2023/11/15 06:56:11;;;;;;;8.20;3.35;;;8.30;99.90;;;;;;4990500;28;20052;-73
2023/11/15 06:58:37;;;;;;;11.60;3.63;;;8.30;99.90;;;;;;5012047;28;20057;-74
2023/11/15 07:01:07;;;;;;;8.70;3.67;;;8.30;99.90;;;;;;4992153;28;20033;-74
2023/11/15 07:03:33;;;;;;;9.63;3.95;;;8.40;99.90;;;;;;5007765;28;20496;-73
2023/11/15 07:05:58;;;;;;;11.93;4.05;;;8.30;99.90;;;;;;5003342;28;20071;-73
2023/11/15 07:08:24;;;;;;;15.77;4.90;;;8.30;99.90;;;;;;5006470;28;20172;-73
2023/11/15 07:10:50;;;;;;;9.13;4.05;;;8.30;99.90;;;;;;5002927;28;20045;-73
2023/11/15 07:13:16;;;;;;;15.15;4.88;;;8.30;99.90;;;;;;5004938;28;20050;-73
2023/11/15 07:15:44;;;;;;;13.73;5.13;;;8.30;99.90;;;;;;4989835;28;20049;-74
2023/11/15 07:18:11;;;;;;;9.02;4.47;;;8.30;99.90;;;;;;5009740;28;20037;-74
2023/11/15 07:20:41;;;;;;;11.40;5.32;;;8.20;99.90;;;;;;5005532;28;20076;-73
2023/11/15 07:23:07;;;;;;;12.35;4.97;;;8.20;99.90;;;;;;4999361;28;20110;-74
2023/11/15 07:25:33;;;;;;;16.42;6.03;;;8.30;99.90;;;;;;5004439;28;20057;-74
2023/11/15 07:27:59;;;;;;;13.90;6.78;;;8.30;99.90;;;;;;5009241;28;20136;-73
2023/11/15 07:30:27;;;;;;;14.95;5.82;;;8.20;99.90;;;;;;5001081;28;20498;-73
2023/11/15 07:32:54;;;;;;;12.32;6.05;;;8.30;99.90;;;;;;5021671;28;20487;-74
2023/11/15 07:35:21;;;;;;;20.20;7.32;;;8.40;99.90;;;;;;4992615;28;20071;-73
2023/11/15 07:37:47;;;;;;;17.95;7.28;;;8.40;99.90;;;;;;4994355;28;20067;-73
2023/11/15 07:40:13;;;;;;;15.00;7.53;;;8.40;99.90;;;;;;5003682;28;20045;-74
2023/11/15 07:42:39;;;;;;;15.02;6.75;;;8.50;99.90;;;;;;4993377;28;20160;-73
2023/11/15 07:45:08;;;;;;;16.15;7.28;;;8.50;99.90;;;;;;4989468;28;20049;-74
2023/11/15 07:47:35;;;;;;;17.95;8.02;;;8.60;99.90;;;;;;4989787;28;20575;-73
2023/11/15 07:50:05;;;;;;;17.60;7.60;;;8.60;99.90;;;;;;4994744;28;20049;-74
2023/11/15 07:52:31;;;;;;;17.20;7.90;;;8.60;99.90;;;;;;4992186;28;20038;-73
2023/11/15 07:54:58;;;;;;;25.25;8.75;;;8.60;99.90;;;;;;5004016;28;20062;-73
2023/11/15 07:57:24;;;;;;;18.63;7.18;;;8.70;99.90;;;;;;5003815;28;20372;-74
2023/11/15 07:59:51;;;;;;;18.13;7.60;;;8.70;99.90;;;;;;4990743;28;20463;-74
2023/11/15 08:02:18;;;;;;;19.55;8.15;;;8.80;99.90;;;;;;5007492;28;20054;-74
2023/11/15 08:04:44;;;;;;;17.80;7.68;;;8.80;99.90;;;;;;4995893;28;20045;-74
2023/11/15 08:07:11;;;;;;;19.83;8.82;;;8.80;99.90;;;;;;5006230;28;20056;-74
2023/11/15 08:09:37;;;;;;;21.70;8.95;;;8.80;99.90;;;;;;5006011;28;20057;-80
2023/11/15 08:12:05;;;;;;;28.15;10.32;;;8.90;99.90;;;;;;5006682;28;20124;-81
2023/11/15 08:14:31;;;;;;;16.05;8.32;;;8.90;99.90;;;;;;4990874;28;20136;-74
2023/11/15 08:16:58;;;;;;;17.25;8.50;;;8.90;99.90;;;;;;4990892;28;20085;-74
2023/11/15 08:19:24;;;;;;;15.57;8.43;;;8.90;99.90;;;;;;5007585;28;20489;-74
2023/11/15 08:21:51;;;;;;;23.00;8.95;;;8.90;99.90;;;;;;4984779;28;20041;-74
2023/11/15 08:24:20;;;;;;;18.20;8.43;;;8.90;99.90;;;;;;4987000;28;20516;-74
2023/11/15 08:26:54;;;;;;;19.25;7.93;;;8.90;99.90;;;;;;4991019;28;20038;-74
2023/11/15 08:29:21;;;;;;;14.95;7.68;;;8.90;99.90;;;;;;5010768;28;20562;-74
2023/11/15 08:31:47;;;;;;;18.85;7.40;;;8.90;99.90;;;;;;5001462;28;20081;-74
2023/11/15 08:34:14;;;;;;;17.48;6.35;;;8.90;99.90;;;;;;5003837;28;20047;-74
2023/11/15 08:36:39;;;;;;;14.77;7.15;;;8.90;99.90;;;;;;4997108;28;20079;-74
2023/11/15 08:39:12;;;;;;;21.05;7.72;;;8.90;99.90;;;;;;4991148;28;20423;-74
2023/11/15 08:41:40;;;;;;;24.33;7.68;;;8.90;99.90;;;;;;5003845;28;20136;-75
2023/11/15 08:44:06;;;;;;;19.95;6.88;;;8.90;99.90;;;;;;4994362;28;20397;-75
2023/11/15 08:46:33;;;;;;;10.73;5.47;;;8.90;99.90;;;;;;5007980;28;20500;-74
2023/11/15 08:49:00;;;;;;;17.98;6.80;;;8.90;99.90;;;;;;5006963;28;20042;-74
2023/11/15 08:51:26;;;;;;;12.93;5.80;;;8.90;99.90;;;;;;5010288;28;20456;-74
2023/11/15 08:53:53;;;;;;;14.40;5.85;;;9.00;99.90;;;;;;5001872;28;20041;-74
2023/11/15 08:56:19;;;;;;;15.82;7.05;;;9.00;99.90;;;;;;4987447;28;20444;-74
2023/11/15 08:58:45;;;;;;;16.02;6.65;;;9.00;99.90;;;;;;5008173;28;20088;-74
2023/11/15 09:01:10;;;;;;;19.20;7.03;;;9.00;99.90;;;;;;5005957;28;20041;-74
2023/11/15 09:03:39;;;;;;;13.60;6.65;;;9.00;99.90;;;;;;4993999;28;20037;-74
2023/11/15 09:06:05;;;;;;;13.13;6.25;;;9.10;99.90;;;;;;5004370;28;20065;-74
2023/11/15 09:08:31;;;;;;;17.10;6.95;;;9.10;99.90;;;;;;4993233;28;20593;-74
2023/11/15 09:10:57;;;;;;;13.68;6.47;;;9.10;99.90;;;;;;4992256;28;20045;-74
2023/11/15 09:13:23;;;;;;;13.38;6.47;;;9.20;99.90;;;;;;4994503;28;20046;-74
2023/11/15 09:15:51;;;;;;;15.38;7.20;;;9.20;99.90;;;;;;5008383;28;20088;-74
2023/11/15 09:18:23;;;;;;;19.17;7.90;;;9.20;99.90;;;;;;5012765;28;20463;-82
2023/11/15 09:20:50;;;;;;;21.08;8.18;;;9.30;99.90;;;;;;5009350;28;20108;-74
2023/11/15 09:23:16;;;;;;;19.17;7.85;;;9.30;99.90;;;;;;4992333;28;20095;-74
2023/11/15 09:25:43;;;;;;;19.33;7.93;;;9.40;99.90;;;;;;4994019;28;20469;-74
2023/11/15 09:28:14;;;;;;;20.75;8.90;;;9.40;99.90;;;;;;5007098;28;20080;-74
2023/11/15 09:30:42;;;;;;;20.98;8.25;;;9.40;99.90;;;;;;5016281;28;20045;-74
2023/11/15 09:33:09;;;;;;;21.08;8.77;;;9.50;99.90;;;;;;5016073;28;20402;-74
2023/11/15 09:35:35;;;;;;;22.00;8.82;;;9.50;99.90;;;;;;5010493;28;20249;-74
2023/11/15 09:38:01;;;;;;;15.10;6.70;;;9.60;99.90;;;;;;5015264;28;20120;-74
2023/11/15 09:40:27;;;;;;;17.17;7.93;;;9.70;99.90;;;;;;5006803;28;20049;-74
2023/11/15 09:42:55;;;;;;;14.77;7.35;;;9.70;99.90;;;;;;5007084;28;20076;-74
2023/11/15 09:45:23;;;;;;;14.32;7.03;;;9.80;99.90;;;;;;5009465;28;20060;-74
2023/11/15 09:47:58;;;;;;;11.10;6.50;;;9.90;99.90;;;;;;4991325;28;20057;-74
2023/11/15 09:50:33;;;;;;;12.00;6.55;;;9.90;99.90;;;;;;5004311;28;20550;-74
2023/11/15 09:53:05;;;;;;;11.05;6.13;;;10.00;99.90;;;;;;4988251;28;20118;-74
2023/11/15 09:55:33;;;;;;;12.88;6.38;;;9.90;99.90;;;;;;4989380;28;20061;-75
2023/11/15 09:57:59;;;;;;;13.13;6.45;;;10.00;99.90;;;;;;4993466;28;20041;-74
2023/11/15 10:00:29;;;;;;;12.95;6.85;;;10.00;99.90;;;;;;4993894;28;20363;-75
2023/11/15 10:02:58;;;;;;;12.65;6.45;;;10.00;99.90;;;;;;5002269;28;20110;-83
2023/11/15 10:05:29;;;;;;;14.73;6.63;;;10.10;99.90;;;;;;4988343;28;20060;-83
2023/11/15 10:08:11;;;;;;;11.65;5.53;;;10.10;99.90;;;;;;5007312;28;20052;-83
2023/11/15 10:10:38;;;;;;;12.40;5.38;;;10.10;99.90;;;;;;5006259;28;20408;-83
2023/11/15 10:13:15;;;;;;;8.45;4.75;;;10.10;99.90;;;;;;5004046;28;20047;-83
2023/11/15 10:15:43;;;;;;;8.70;4.95;;;10.10;99.90;;;;;;5005827;28;20176;-82
2023/11/15 10:18:15;;;;;;;21.17;6.85;;;10.10;99.90;;;;;;4993958;28;20462;-83
2023/11/15 10:20:44;;;;;;;17.33;5.80;;;10.10;99.90;;;;;;4989440;28;20038;-83
2023/11/15 10:23:12;;;;;;;7.25;3.67;;;10.00;99.90;;;;;;5006562;28;20053;-83
2023/11/15 10:25:50;;;;;;;6.07;3.20;;;10.00;99.90;;;;;;4991065;28;20543;-84
2023/11/15 10:28:17;;;;;;;9.05;3.38;;;10.00;99.90;;;;;;5010063;28;20053;-83
2023/11/15 10:30:43;;;;;;;8.88;3.25;;;9.90;99.90;;;;;;5006942;28;20064;-83
2023/11/15 10:33:10;;;;;;;6.85;2.40;;;9.90;99.90;;;;;;4992590;28;20492;-83
2023/11/15 10:35:41;;;;;;;8.55;3.03;;;9.90;99.90;;;;;;4994360;28;20610;-83
2023/11/15 10:38:14;;;;;;;6.30;2.20;;;9.80;99.90;;;;;;4991475;28;20053;-82
2023/11/15 10:40:49;;;;;;;8.10;2.58;;;9.80;99.90;;;;;;5002593;28;20134;-83
2023/11/15 10:43:19;;;;;;;6.30;2.10;;;9.90;99.90;;;;;;4989459;28;20231;-83
2023/11/15 10:45:55;;;;;;;4.53;2.30;;;10.00;99.90;;;;;;4988804;28;20100;-83
2023/11/15 10:48:25;;;;;;;6.63;2.40;;;10.10;99.90;;;;;;5006107;28;20049;-83
2023/11/15 10:50:57;;;;;;;5.68;2.25;;;10.10;99.90;;;;;;5006324;28;20046;-83
2023/11/15 10:53:26;;;;;;;5.20;1.50;;;10.20;99.90;;;;;;4995891;28;20052;-84
2023/11/15 10:55:55;;;;;;;3.83;1.65;;;10.20;99.90;;;;;;5006596;28;20883;-75
2023/11/15 10:58:22;;;;;;;4.45;1.88;;;10.10;99.90;;;;;;4990142;28;20041;-75
2023/11/15 11:00:54;;;;;;;6.78;2.17;;;10.10;99.90;;;;;;4993086;28;20045;-75
2023/11/15 11:03:19;;;;;;;4.22;1.98;;;10.10;99.90;;;;;;4985325;28;20049;-76
2023/11/15 11:06:03;;;;;;;3.58;1.92;;;10.00;99.90;;;;;;4997147;28;20487;-75
2023/11/15 11:08:49;;;;;;;4.63;2.08;;;10.00;99.90;;;;;;5007269;28;20053;-76
2023/11/15 11:11:20;;;;;;;7.50;2.55;;;9.90;99.90;;;;;;5008152;28;20053;-84
2023/11/15 11:14:16;;;;;;;8.60;2.63;;;9.90;99.90;;;;;;5005390;28;20049;-85
2023/11/15 11:16:47;;;;;;;4.63;1.92;;;9.90;99.90;;;;;;4990903;28;20121;-84
2023/11/15 11:19:21;;;;;;;6.68;2.25;;;9.80;99.90;;;;;;5005947;28;20048;-84
2023/11/15 11:22:07;;;;;;;4.97;1.58;;;9.80;99.90;;;;;;4995018;28;20500;-84
2023/11/15 11:24:59;;;;;;;6.57;2.05;;;9.80;99.90;;;;;;4990529;28;20041;-84
2023/11/15 11:27:29;;;;;;;7.15;2.03;;;9.80;99.90;;;;;;4990394;28;20072;-76
2023/11/15 11:29:58;;;;;;;8.43;1.73;;;9.80;99.90;;;;;;4985691;28;20095;-76
2023/11/15 11:32:31;;;;;;;5.60;1.77;;;9.90;99.90;;;;;;4989243;28;20524;-75
2023/11/15 11:36:02;;;;;;;7.35;1.77;;;10.00;99.90;;;;;;5002831;28;20598;-76
2023/11/15 11:37:56;;;;;;;5.57;1.55;;;10.10;99.90;;;;;;4998252;28;20052;-75
2023/11/15 11:40:32;;;;;;;7.68;1.92;;;10.20;99.90;;;;;;4987168;28;20246;-75
2023/11/15 11:43:30;;;;;;;7.43;2.20;;;10.30;99.90;;;;;;5003859;28;20049;-75
2023/11/15 11:45:57;;;;;;;7.60;2.30;;;10.30;99.90;;;;;;4990693;28;20357;-75
2023/11/15 11:48:27;;;;;;;9.00;2.78;;;10.30;99.90;;;;;;4986012;28;20543;-75
2023/11/15 11:50:58;;;;;;;7.70;2.17;;;10.10;99.90;;;;;;5006311;28;21037;-76
2023/11/15 11:53:24;;;;;;;9.20;2.55;;;10.20;99.90;;;;;;5001881;28;20057;-75
2023/11/15 11:56:01;;;;;;;10.80;2.60;;;10.10;99.90;;;;;;5001632;28;20052;-75
2023/11/15 11:58:28;;;;;;;11.02;2.13;;;10.10;99.90;;;;;;4990672;28;20485;-74
2023/11/15 12:01:00;;;;;;;11.35;2.55;;;10.10;99.90;;;;;;4992513;28;20048;-74
2023/11/15 12:03:27;;;;;;;7.75;2.60;;;10.10;99.90;;;;;;5001834;28;20053;-75
2023/11/15 12:06:19;;;;;;;8.00;3.15;;;10.10;99.90;;;;;;4983244;28;20198;-74
2023/11/15 12:08:52;;;;;;;10.77;3.00;;;10.10;99.90;;;;;;4985737;28;20539;-75
2023/11/15 12:11:21;;;;;;;13.52;3.60;;;10.10;99.90;;;;;;4990437;28;20049;-74
2023/11/15 12:13:49;;;;;;;15.20;3.45;;;10.10;99.90;;;;;;4997671;28;20120;-75
2023/11/15 12:16:16;;;;;;;12.75;3.90;;;10.20;99.90;;;;;;4992090;28;20783;-75
2023/11/15 12:18:42;;;;;;;18.08;5.03;;;10.20;99.90;;;;;;4984392;28;20057;-75
2023/11/15 12:21:09;;;;;;;18.90;4.43;;;10.20;99.90;;;;;;4988756;28;21955;-74
2023/11/15 12:23:40;;;;;;;16.27;4.43;;;10.30;99.90;;;;;;4990152;28;20041;-74
2023/11/15 12:26:06;;;;;;;17.95;4.45;;;10.40;99.90;;;;;;5007137;28;20400;-74
2023/11/15 12:28:32;;;;;;;20.17;5.18;;;10.50;99.90;;;;;;4991769;28;20045;-74
2023/11/15 12:31:03;;;;;;;21.98;5.22;;;10.60;99.90;;;;;;5007703;28;20038;-74
2023/11/15 12:33:29;;;;;;;;;;;10.70;99.90;;;;;;5012547;28;20064;-74
2023/11/15 12:35:58;;;;;;;24.05;5.43;;;10.60;99.90;;;;;;4990876;28;19971;-74
2023/11/15 12:38:24;;;;;;;26.48;5.82;;;10.60;99.90;;;;;;4989734;28;20567;-75
2023/11/15 12:41:03;;;;;;;16.20;5.22;;;10.70;99.90;;;;;;5009828;28;20131;-74
2023/11/15 12:43:32;;;;;;;21.75;5.32;;;10.70;99.90;;;;;;4988582;28;20050;-74
2023/11/15 12:45:59;;;;;;;18.40;5.05;;;10.70;99.90;;;;;;5003443;28;20132;-75
2023/11/15 12:48:26;;;;;;;25.08;5.22;;;10.70;99.90;;;;;;4990313;28;20048;-75
2023/11/15 12:51:02;;;;;;;25.02;5.53;;;10.70;99.90;;;;;;5004329;28;20389;-75